Time;durP1;ratioP1;P1;durP2;ratioP2;P2;SDS_P1;SDS_P2;PMS_P1;PMS_P2;Temp;Humidity;BMP_temperature;BMP_pressure;BME280_temperature;BME280_humidity;BME280_pressure;Samples;Min_cycle;Max_cycle;Signal;HPM_P1;HPM_P2
2021/08/07 00:00:14;;;;;;;6.25;2.30;;;;;;;-144.51;100.00;69251.94;4976493;28;20046;-74
2021/08/07 00:02:59;;;;;;;7.00;2.25;;;;;;;-144.51;100.00;69251.94;4972060;28;20506;-74
2021/08/07 00:05:44;;;;;;;5.15;2.00;;;;;;;-144.51;100.00;69251.94;4974808;28;20046;-74
2021/08/07 00:08:29;;;;;;;13.82;2.88;;;;;;;-144.51;100.00;69251.94;4978369;28;20047;-74
2021/08/07 00:11:14;;;;;;;7.85;2.55;;;;;;;-144.51;100.00;69251.94;4975806;28;20050;-74
2021/08/07 00:13:59;;;;;;;5.63;2.22;;;;;;;-144.51;100.00;69251.94;4973924;28;20046;-74
2021/08/07 00:16:44;;;;;;;7.10;2.28;;;;;;;-144.51;100.00;69251.94;4973100;28;20051;-74
2021/08/07 00:19:30;;;;;;;7.50;1.80;;;;;;;-144.51;100.00;69251.94;4976654;28;20034;-74
2021/08/07 00:22:15;;;;;;;7.40;2.40;;;;;;;-144.51;100.00;69251.94;4954914;28;20498;-74
2021/08/07 00:25:00;;;;;;;5.05;2.10;;;;;;;-144.51;100.00;69251.94;4972611;28;20043;-74
2021/08/07 00:27:45;;;;;;;5.82;2.30;;;;;;;-144.51;100.00;69251.94;4976721;28;20042;-74
2021/08/07 00:30:30;;;;;;;2.25;1.83;;;;;;;-144.51;100.00;69251.94;4959187;28;20043;-74
2021/08/07 00:33:16;;;;;;;4.65;2.13;;;;;;;-144.51;100.00;69251.94;4957760;28;20047;-74
2021/08/07 00:36:01;;;;;;;5.55;2.15;;;;;;;-144.51;100.00;69251.94;4962208;28;20043;-74
2021/08/07 00:38:45;;;;;;;4.88;2.17;;;;;;;-144.51;100.00;69251.94;4975292;28;20043;-74
2021/08/07 00:41:31;;;;;;;8.35;2.67;;;;;;;-144.51;100.00;69251.94;4957898;28;20424;-74
2021/08/07 00:44:17;;;;;;;2.88;2.10;;;;;;;-144.51;100.00;69251.94;4962500;28;20047;-74
2021/08/07 00:47:05;;;;;;;5.43;2.67;;;;;;;-144.51;100.00;69251.94;4960768;28;20051;-74
2021/08/07 00:49:52;;;;;;;5.35;1.95;;;;;;;-144.51;100.00;69251.94;4958215;28;20042;-74
2021/08/07 00:52:41;;;;;;;5.57;1.95;;;;;;;-144.51;100.00;69251.94;4952125;28;20043;-74
2021/08/07 00:55:27;;;;;;;4.70;2.25;;;;;;;-144.51;100.00;69251.94;4955397;28;20047;-74
2021/08/07 00:58:13;;;;;;;3.47;2.10;;;;;;;-144.51;100.00;69251.94;4957448;28;20038;-74
2021/08/07 01:01:09;;;;;;;7.70;2.40;;;;;;;-144.51;100.00;69251.94;4961255;28;20046;-74
2021/08/07 01:03:55;;;;;;;6.38;2.65;;;;;;;-144.51;100.00;69251.94;4959980;28;20035;-74
2021/08/07 01:07:15;;;;;;;5.85;2.30;;;;;;;-144.51;100.00;69251.94;4966890;28;20480;-74
2021/08/07 01:10:23;;;;;;;6.05;2.15;;;;;;;-144.51;100.00;69251.94;4976065;28;20039;-74
2021/08/07 01:13:34;;;;;;;4.22;2.60;;;;;;;-144.51;100.00;69251.94;4965785;28;20488;-74
2021/08/07 01:16:26;;;;;;;8.40;2.55;;;;;;;-144.51;100.00;69251.94;4963600;28;20488;-75
2021/08/07 01:19:17;;;;;;;10.07;2.47;;;;;;;-144.51;100.00;69251.94;4961044;28;20047;-74
2021/08/07 01:22:04;;;;;;;4.82;2.65;;;;;;;-144.51;100.00;69251.94;4962424;28;20043;-74
2021/08/07 01:25:10;;;;;;;3.47;2.15;;;;;;;-144.51;100.00;69251.94;4961761;28;20572;-74
2021/08/07 01:28:01;;;;;;;9.43;2.35;;;;;;;-144.51;100.00;69251.94;4965051;28;20031;-74
2021/08/07 01:30:53;;;;;;;5.28;1.73;;;;;;;-144.51;100.00;69251.94;4963381;28;20043;-74
2021/08/07 01:33:45;;;;;;;6.93;2.38;;;;;;;-144.51;100.00;69251.94;4960889;28;20042;-74
2021/08/07 01:36:37;;;;;;;5.88;2.35;;;;;;;-144.51;100.00;69251.94;4966943;28;20039;-74
2021/08/07 01:39:24;;;;;;;4.97;2.22;;;;;;;-144.51;100.00;69251.94;4962887;28;20043;-74
2021/08/07 01:42:11;;;;;;;4.53;1.90;;;;;;;-144.51;100.00;69251.94;4962291;28;20055;-74
2021/08/07 01:44:57;;;;;;;5.07;2.50;;;;;;;-144.51;100.00;69251.94;4964566;28;20408;-74
2021/08/07 01:47:54;;;;;;;12.70;2.40;;;;;;;-144.51;100.00;69251.94;4979444;28;20046;-74
2021/08/07 01:50:58;;;;;;;5.45;2.78;;;;;;;-144.51;100.00;69251.94;4953063;28;20039;-74
2021/08/07 01:53:47;;;;;;;6.93;2.55;;;;;;;-144.51;100.00;69251.94;4962763;28;20500;-74
2021/08/07 01:56:34;;;;;;;4.93;2.80;;;;;;;-144.51;100.00;69251.94;4975275;28;20038;-74
2021/08/07 01:59:27;;;;;;;11.23;2.75;;;;;;;-144.51;100.00;69251.94;4964580;28;20039;-74
2021/08/07 02:02:13;;;;;;;3.47;2.08;;;;;;;-144.51;100.00;69251.94;4961463;28;20456;-74
2021/08/07 02:05:09;;;;;;;7.80;2.83;;;;;;;-144.51;100.00;69251.94;4960248;28;20054;-74
2021/08/07 02:07:54;;;;;;;5.30;2.28;;;;;;;-144.51;100.00;69251.94;4972927;28;20504;-74
2021/08/07 02:10:46;;;;;;;6.22;2.33;;;;;;;-144.51;100.00;69251.94;4960405;28;20416;-74
2021/08/07 02:13:34;;;;;;;8.98;2.47;;;;;;;-144.51;100.00;69251.94;4965546;28;20484;-74
2021/08/07 02:16:29;;;;;;;3.20;2.15;;;;;;;-144.51;100.00;69251.94;4963125;28;20050;-74
2021/08/07 02:19:17;;;;;;;5.30;2.30;;;;;;;-144.51;100.00;69251.94;4961541;28;20496;-74
2021/08/07 02:22:03;;;;;;;5.20;2.08;;;;;;;-144.51;100.00;69251.94;4974951;28;20042;-74
2021/08/07 02:24:49;;;;;;;9.77;2.75;;;;;;;-144.51;100.00;69251.94;4962913;28;20042;-74
2021/08/07 02:27:54;;;;;;;6.35;2.58;;;;;;;-144.51;100.00;69251.94;4960704;28;20047;-74
2021/08/07 02:30:42;;;;;;;6.05;2.60;;;;;;;-144.51;100.00;69251.94;4962917;28;20042;-74
2021/08/07 02:33:29;;;;;;;4.72;2.35;;;;;;;-144.51;100.00;69251.94;4961635;28;20039;-74
2021/08/07 02:36:16;;;;;;;3.17;1.95;;;;;;;-144.51;100.00;69251.94;4974122;28;20039;-74
2021/08/07 02:39:07;;;;;;;9.55;2.58;;;;;;;-144.51;100.00;69251.94;4963644;28;20043;-74
2021/08/07 02:41:55;;;;;;;6.22;2.10;;;;;;;-144.51;100.00;69251.94;4975041;28;20043;-74
2021/08/07 02:44:42;;;;;;;4.50;3.00;;;;;;;-144.51;100.00;69251.94;4957616;28;20709;-74
2021/08/07 02:47:29;;;;;;;5.30;1.88;;;;;;;-144.51;100.00;69251.94;4962738;28;20050;-74
2021/08/07 02:50:19;;;;;;;5.78;2.47;;;;;;;-144.51;100.00;69251.94;4976415;28;20058;-74
2021/08/07 02:53:04;;;;;;;5.00;2.75;;;;;;;-144.51;100.00;69251.94;4973516;28;20039;-74
2021/08/07 02:55:50;;;;;;;4.95;2.47;;;;;;;-144.51;100.00;69251.94;4963260;28;20046;-74
2021/08/07 02:58:42;;;;;;;6.05;2.70;;;;;;;-144.51;100.00;69251.94;4960765;28;20512;-74
2021/08/07 03:01:27;;;;;;;5.95;2.40;;;;;;;-144.51;100.00;69251.94;4976096;28;20042;-74
2021/08/07 03:04:15;;;;;;;6.53;2.30;;;;;;;-144.51;100.00;69251.94;4961675;28;20058;-74
2021/08/07 03:06:59;;;;;;;3.40;2.25;;;;;;;-144.51;100.00;69251.94;4974323;28;20046;-74
2021/08/07 03:09:46;;;;;;;6.88;2.10;;;;;;;-144.51;100.00;69251.94;4984119;28;20046;-74
2021/08/07 03:12:34;;;;;;;6.15;2.53;;;;;;;-144.51;100.00;69251.94;4966989;28;20050;-74
2021/08/07 03:15:23;;;;;;;5.72;2.28;;;;;;;-144.51;100.00;69251.94;4960285;28;20039;-74
2021/08/07 03:18:09;;;;;;;4.55;2.80;;;;;;;-144.51;100.00;69251.94;4978197;28;20408;-74
2021/08/07 03:20:57;;;;;;;8.23;3.22;;;;;;;-144.51;100.00;69251.94;4975952;28;20409;-74
2021/08/07 03:23:47;;;;;;;5.70;3.40;;;;;;;-144.51;100.00;69251.94;4972421;28;20047;-74
2021/08/07 03:26:32;;;;;;;8.40;3.47;;;;;;;-144.51;100.00;69251.94;4959058;28;20043;-74
2021/08/07 03:29:22;;;;;;;7.90;3.50;;;;;;;-144.51;100.00;69251.94;4961685;28;20047;-74
2021/08/07 03:32:11;;;;;;;9.73;3.33;;;;;;;-144.51;100.00;69251.94;4959167;28;20042;-74
2021/08/07 03:34:59;;;;;;;4.30;3.15;;;;;;;-144.51;100.00;69251.94;4963537;28;20046;-74
2021/08/07 03:37:44;;;;;;;7.13;3.55;;;;;;;-144.51;100.00;69251.94;4960813;28;20042;-74
2021/08/07 03:40:31;;;;;;;6.95;3.08;;;;;;;-144.51;100.00;69251.94;4958817;28;20043;-74
2021/08/07 03:43:18;;;;;;;4.00;2.80;;;;;;;-144.51;100.00;69251.94;4962496;28;20051;-74
2021/08/07 03:46:03;;;;;;;4.80;3.20;;;;;;;-144.51;100.00;69251.94;4961647;28;20038;-74
2021/08/07 03:48:49;;;;;;;7.43;3.13;;;;;;;-144.51;100.00;69251.94;4959687;28;20038;-74
2021/08/07 03:51:34;;;;;;;7.90;3.50;;;;;;;-144.51;100.00;69251.94;4961423;28;20043;-74
2021/08/07 03:54:19;;;;;;;5.97;3.20;;;;;;;-144.51;100.00;69251.94;4975699;28;20038;-74
2021/08/07 03:57:05;;;;;;;8.60;2.85;;;;;;;-144.51;100.00;69251.94;4959541;28;20047;-74
2021/08/07 03:59:51;;;;;;;9.63;2.92;;;;;;;-144.51;100.00;69251.94;4963463;28;20043;-74
2021/08/07 04:02:36;;;;;;;5.07;2.92;;;;;;;-144.51;100.00;69251.94;4972266;28;20050;-74
2021/08/07 04:05:22;;;;;;;6.38;3.10;;;;;;;-144.51;100.00;69251.94;4960127;28;20043;-74
2021/08/07 04:08:09;;;;;;;7.90;2.95;;;;;;;-144.51;100.00;69251.94;4963692;28;20408;-74
2021/08/07 04:10:55;;;;;;;7.03;3.05;;;;;;;-144.51;100.00;69251.94;4960673;28;20042;-74
2021/08/07 04:13:43;;;;;;;4.00;2.83;;;;;;;-144.51;100.00;69251.94;4973239;28;20038;-74
2021/08/07 04:16:29;;;;;;;4.95;2.75;;;;;;;-144.51;100.00;69251.94;4971320;28;20038;-74
2021/08/07 04:19:17;;;;;;;7.00;2.35;;;;;;;-144.51;100.00;69251.94;4961895;28;20046;-75
2021/08/07 04:22:07;;;;;;;7.38;3.00;;;;;;;-144.51;100.00;69251.94;4973599;28;20042;-74
2021/08/07 04:24:58;;;;;;;6.82;2.95;;;;;;;-144.51;100.00;69251.94;4962975;28;20050;-74
2021/08/07 04:27:43;;;;;;;6.22;2.78;;;;;;;-144.51;100.00;69251.94;4964478;28;20508;-74
2021/08/07 04:30:28;;;;;;;6.82;2.90;;;;;;;-144.51;100.00;69251.94;4972669;28;20046;-74
2021/08/07 04:33:15;;;;;;;6.15;2.58;;;;;;;-144.51;100.00;69251.94;4962646;28;20047;-74
2021/08/07 04:36:04;;;;;;;5.20;2.85;;;;;;;-144.51;100.00;69251.94;4960526;28;20042;-74
2021/08/07 04:38:50;;;;;;;12.23;3.70;;;;;;;-144.51;100.00;69251.94;4969673;28;20051;-74
2021/08/07 04:41:35;;;;;;;5.88;3.03;;;;;;;-144.51;100.00;69251.94;4964545;28;20051;-74
2021/08/07 04:44:20;;;;;;;7.22;2.85;;;;;;;-144.51;100.00;69251.94;4967118;28;20047;-74
2021/08/07 04:47:06;;;;;;;6.72;3.22;;;;;;;-144.51;100.00;69251.94;4962484;28;20047;-74
2021/08/07 04:49:51;;;;;;;6.18;2.80;;;;;;;-144.51;100.00;69251.94;4967080;28;20046;-74
2021/08/07 04:52:37;;;;;;;6.63;2.70;;;;;;;-144.51;100.00;69251.94;4960370;28;20042;-74
2021/08/07 04:55:22;;;;;;;4.40;2.95;;;;;;;-144.51;100.00;69251.94;4978070;28;20039;-74
2021/08/07 04:58:08;;;;;;;10.48;4.43;;;;;;;-144.51;100.00;69251.94;4966728;28;20488;-74
2021/08/07 05:00:56;;;;;;;8.43;3.67;;;;;;;-144.51;100.00;69251.94;4964704;28;20408;-74
2021/08/07 05:03:41;;;;;;;6.05;3.53;;;;;;;-144.51;100.00;69251.94;4974994;28;20431;-74
2021/08/07 05:06:30;;;;;;;7.45;3.75;;;;;;;-144.51;100.00;69251.94;4947638;28;20051;-74
2021/08/07 05:09:15;;;;;;;5.95;4.38;;;;;;;-144.51;100.00;69251.94;4968332;28;20042;-74
2021/08/07 05:12:24;;;;;;;5.75;3.58;;;;;;;-144.51;100.00;69251.94;4962491;28;20047;-74
2021/08/07 05:15:10;;;;;;;5.95;3.38;;;;;;;-144.51;100.00;69251.94;4962536;28;20477;-74
2021/08/07 05:17:55;;;;;;;7.57;3.58;;;;;;;-144.51;100.00;69251.94;4980497;28;20046;-75
2021/08/07 05:20:43;;;;;;;6.82;3.78;;;;;;;-144.51;100.00;69251.94;4975430;28;20042;-74
2021/08/07 05:23:28;;;;;;;7.93;3.78;;;;;;;-144.51;100.00;69251.94;4980663;28;20051;-74
2021/08/07 05:26:13;;;;;;;7.80;4.32;;;;;;;-144.51;100.00;69251.94;4977448;28;20039;-74
2021/08/07 05:28:58;;;;;;;9.25;4.97;;;;;;;-144.51;100.00;69251.94;4977137;28;20496;-74
2021/08/07 05:31:44;;;;;;;7.57;4.32;;;;;;;-144.51;100.00;69251.94;4963643;28;20489;-74
2021/08/07 05:34:29;;;;;;;7.47;3.78;;;;;;;-144.51;100.00;69251.94;4976042;28;21447;-74
2021/08/07 05:37:14;;;;;;;6.20;4.43;;;;;;;-144.51;100.00;69251.94;4973904;28;20054;-74
2021/08/07 05:40:00;;;;;;;12.20;5.00;;;;;;;-144.51;100.00;69251.94;4960957;28;20039;-74
2021/08/07 05:42:50;;;;;;;7.28;4.72;;;;;;;-144.51;100.00;69251.94;4941484;29;20043;-74
2021/08/07 05:45:36;;;;;;;9.23;4.15;;;;;;;-144.51;100.00;69251.94;4959908;28;20047;-73
2021/08/07 05:48:21;;;;;;;20.30;4.00;;;;;;;-144.51;100.00;69251.94;4991296;28;20034;-73
2021/08/07 05:51:06;;;;;;;25.00;5.18;;;;;;;-144.51;100.00;69251.94;4984285;28;20043;-73
2021/08/07 05:53:54;;;;;;;14.88;3.97;;;;;;;-144.51;100.00;69251.94;4986441;28;20042;-73
2021/08/07 05:56:43;;;;;;;13.32;3.55;;;;;;;-144.51;100.00;69251.94;4997381;28;20384;-73
2021/08/07 05:59:29;;;;;;;8.80;3.30;;;;;;;-144.51;100.00;69251.94;4982422;28;20496;-73
2021/08/07 06:02:14;;;;;;;11.15;3.13;;;;;;;-144.51;100.00;69251.94;4959854;28;20043;-73
2021/08/07 06:04:59;;;;;;;17.75;3.42;;;;;;;-144.51;100.00;69251.94;4974901;28;20058;-73
2021/08/07 06:07:50;;;;;;;13.57;3.28;;;;;;;-144.51;100.00;69251.94;4963815;28;20046;-73
2021/08/07 06:10:36;;;;;;;9.65;3.00;;;;;;;-144.51;100.00;69251.94;4960057;28;20038;-74
2021/08/07 06:13:22;;;;;;;11.45;3.13;;;;;;;-144.51;100.00;69251.94;4965149;28;20046;-74
2021/08/07 06:16:06;;;;;;;5.93;2.65;;;;;;;-144.51;100.00;69251.94;4963293;28;20038;-74
2021/08/07 06:18:51;;;;;;;8.73;3.05;;;;;;;-144.51;100.00;69251.94;4960435;28;20048;-74
2021/08/07 06:21:36;;;;;;;8.32;2.83;;;;;;;-144.51;100.00;69251.94;4962944;28;20042;-76
2021/08/07 06:24:21;;;;;;;12.73;3.13;;;;;;;-144.51;100.00;69251.94;4982298;28;20412;-75
2021/08/07 06:27:07;;;;;;;6.18;4.15;;;;;;;-144.51;100.00;69251.94;4959492;28;20042;-75
2021/08/07 06:29:52;;;;;;;10.00;2.90;;;;;;;-144.51;100.00;69251.94;4980130;28;20517;-74
2021/08/07 06:32:37;;;;;;;11.70;3.67;;;;;;;-144.51;100.00;69251.94;4972964;28;20042;-74
2021/08/07 06:35:22;;;;;;;5.90;2.60;;;;;;;-144.51;100.00;69251.94;4961703;28;20039;-75
2021/08/07 06:38:08;;;;;;;6.60;3.13;;;;;;;-144.51;100.00;69251.94;4966446;28;20050;-74
2021/08/07 06:40:54;;;;;;;5.78;3.78;;;;;;;-144.51;100.00;69251.94;4960845;28;20496;-74
2021/08/07 06:43:38;;;;;;;10.00;2.90;;;;;;;-144.51;100.00;69251.94;4959242;28;20521;-74
2021/08/07 06:46:35;;;;;;;9.77;3.47;;;;;;;-144.51;100.00;69251.94;4984311;28;20499;-74
2021/08/07 06:49:20;;;;;;;8.38;3.65;;;;;;;-144.51;100.00;69251.94;4982498;28;20407;-74
2021/08/07 06:52:07;;;;;;;5.88;3.30;;;;;;;-144.51;100.00;69251.94;4974158;28;20043;-74
2021/08/07 06:54:52;;;;;;;5.05;2.83;;;;;;;-144.51;100.00;69251.94;4964531;28;20488;-74
2021/08/07 06:57:40;;;;;;;7.97;3.55;;;;;;;-144.51;100.00;69251.94;4962938;28;20432;-73
2021/08/07 07:00:27;;;;;;;5.13;2.70;;;;;;;-144.51;100.00;69251.94;4959752;28;20030;-73
2021/08/07 07:03:14;;;;;;;6.88;2.88;;;;;;;-144.51;100.00;69251.94;4971669;28;20051;-73
2021/08/07 07:05:59;;;;;;;8.10;2.92;;;;;;;-144.51;100.00;69251.94;4957425;28;20753;-73
2021/08/07 07:08:44;;;;;;;8.30;3.40;;;;;;;-144.51;100.00;69251.94;4984093;28;20055;-73
2021/08/07 07:11:33;;;;;;;8.75;3.72;;;;;;;-144.51;100.00;69251.94;4961451;28;20083;-73
2021/08/07 07:14:19;;;;;;;9.00;4.07;;;;;;;-144.51;100.00;69251.94;4960458;28;20050;-74
2021/08/07 07:17:04;;;;;;;5.18;2.53;;;;;;;-144.51;100.00;69251.94;4981139;28;20042;-73
2021/08/07 07:19:50;;;;;;;8.70;3.33;;;;;;;-144.51;100.00;69251.94;4980719;28;20054;-74
2021/08/07 07:22:35;;;;;;;5.40;3.35;;;;;;;-144.51;100.00;69251.94;4971444;28;20404;-74
2021/08/07 07:25:21;;;;;;;4.78;2.70;;;;;;;-144.51;100.00;69251.94;4969322;28;20062;-74
2021/08/07 07:28:07;;;;;;;10.15;3.80;;;;;;;-144.51;100.00;69251.94;4985089;28;20034;-74
2021/08/07 07:30:52;;;;;;;13.95;4.38;;;;;;;-144.51;100.00;69251.94;4977463;28;20050;-74
2021/08/07 07:33:38;;;;;;;10.80;3.33;;;;;;;-144.51;100.00;69251.94;4947583;28;20035;-74
2021/08/07 07:36:23;;;;;;;5.32;3.22;;;;;;;-144.51;100.00;69251.94;4968187;28;20042;-74
2021/08/07 07:39:08;;;;;;;5.97;2.63;;;;;;;-144.51;100.00;69251.94;4970731;28;20042;-74
2021/08/07 07:41:53;;;;;;;10.27;3.08;;;;;;;-144.51;100.00;69251.94;4969217;28;20038;-74
2021/08/07 07:44:39;;;;;;;5.53;2.92;;;;;;;-144.51;100.00;69251.94;4975065;28;20047;-74
2021/08/07 07:47:24;;;;;;;5.13;2.72;;;;;;;-144.51;100.00;69251.94;4975424;28;20051;-74
2021/08/07 07:50:10;;;;;;;7.03;2.20;;;;;;;-144.51;100.00;69251.94;4968118;28;20047;-74
2021/08/07 07:52:55;;;;;;;5.00;3.50;;;;;;;-144.51;100.00;69251.94;4972752;28;20047;-74
2021/08/07 07:55:41;;;;;;;6.95;2.70;;;;;;;-144.51;100.00;69251.94;4944390;28;20043;-74
2021/08/07 07:58:26;;;;;;;3.97;2.20;;;;;;;-144.51;100.00;69251.94;4976616;28;20050;-74
2021/08/07 08:01:11;;;;;;;6.07;2.50;;;;;;;-144.51;100.00;69251.94;4959609;28;20404;-74
2021/08/07 08:03:56;;;;;;;6.65;2.20;;;;;;;-144.51;100.00;69251.94;4960157;28;20047;-74
2021/08/07 08:06:42;;;;;;;2.33;1.85;;;;;;;-144.51;100.00;69251.94;4973427;28;20039;-74
2021/08/07 08:09:28;;;;;;;6.15;2.42;;;;;;;-144.51;100.00;69251.94;4969259;28;20043;-74
2021/08/07 08:12:13;;;;;;;3.97;1.90;;;;;;;-144.51;100.00;69251.94;4970401;28;20038;-74
2021/08/07 08:14:58;;;;;;;4.55;2.00;;;;;;;-144.51;100.00;69251.94;4976017;28;20047;-72
2021/08/07 08:17:43;;;;;;;7.07;2.70;;;;;;;-144.51;100.00;69251.94;4955870;28;20050;-72
2021/08/07 08:20:28;;;;;;;4.40;2.20;;;;;;;-144.51;100.00;69251.94;4976328;28;20046;-72
2021/08/07 08:23:15;;;;;;;4.65;2.42;;;;;;;-144.51;100.00;69251.94;4971167;28;20047;-72
2021/08/07 08:26:00;;;;;;;7.22;2.38;;;;;;;-144.51;100.00;69251.94;4973200;28;20043;-72
2021/08/07 08:28:45;;;;;;;4.00;2.10;;;;;;;-144.51;100.00;69251.94;4969202;28;20043;-72
2021/08/07 08:31:30;;;;;;;4.15;1.80;;;;;;;-144.51;100.00;69251.94;4959501;28;20050;-72
2021/08/07 08:34:15;;;;;;;2.85;2.05;;;;;;;-144.51;100.00;69251.94;4980614;28;20038;-72
2021/08/07 08:37:00;;;;;;;3.63;1.67;;;;;;;-144.51;100.00;69251.94;4976442;28;20042;-72
2021/08/07 08:39:46;;;;;;;8.27;1.60;;;;;;;-144.51;100.00;69251.94;4970545;28;20047;-72
2021/08/07 08:42:32;;;;;;;2.95;1.70;;;;;;;-144.51;100.00;69251.94;4961512;28;20419;-72
2021/08/07 08:45:16;;;;;;;4.78;2.10;;;;;;;-144.51;100.00;69251.94;4956065;28;20055;-72
2021/08/07 08:48:03;;;;;;;4.25;1.88;;;;;;;-144.51;100.00;69251.94;4958360;28;20043;-72
2021/08/07 08:50:52;;;;;;;22.95;2.50;;;;;;;-144.51;100.00;69251.94;4956912;28;20047;-72
2021/08/07 08:53:40;;;;;;;3.25;2.25;;;;;;;-144.51;100.00;69251.94;4972596;28;20046;-72
2021/08/07 08:56:26;;;;;;;5.70;2.17;;;;;;;-144.51;100.00;69251.94;4973189;28;20488;-72
2021/08/07 08:59:11;;;;;;;6.00;2.03;;;;;;;-144.51;100.00;69251.94;4960227;28;20523;-72
2021/08/07 09:01:57;;;;;;;4.65;2.30;;;;;;;-144.51;100.00;69251.94;4960195;28;20035;-71
2021/08/07 09:04:43;;;;;;;4.07;1.85;;;;;;;-144.51;100.00;69251.94;4966095;28;20055;-72
2021/08/07 09:07:28;;;;;;;3.38;1.75;;;;;;;-144.51;100.00;69251.94;4950128;28;20035;-71
2021/08/07 09:10:14;;;;;;;5.20;1.90;;;;;;;-144.51;100.00;69251.94;4977307;28;20043;-72
2021/08/07 09:13:06;;;;;;;3.53;1.63;;;;;;;-144.51;100.00;69251.94;4969526;28;20034;-72
2021/08/07 09:15:52;;;;;;;4.78;1.95;;;;;;;-144.51;100.00;69251.94;4971751;28;20043;-71
2021/08/07 09:18:56;;;;;;;4.75;1.80;;;;;;;-144.51;100.00;69251.94;4965824;28;20038;-71
2021/08/07 09:21:41;;;;;;;6.20;2.00;;;;;;;-144.51;100.00;69251.94;4968986;28;20050;-71
2021/08/07 09:24:26;;;;;;;4.95;1.85;;;;;;;-144.51;100.00;69251.94;4972258;28;20043;-71
2021/08/07 09:27:11;;;;;;;3.28;1.88;;;;;;;-144.51;100.00;69251.94;4974218;28;20556;-71
2021/08/07 09:29:56;;;;;;;3.03;1.60;;;;;;;-144.51;100.00;69251.94;4979208;28;20047;-72
2021/08/07 09:32:45;;;;;;;6.40;1.90;;;;;;;-144.51;100.00;69251.94;4960504;28;20051;-72
2021/08/07 09:35:32;;;;;;;3.33;1.67;;;;;;;-144.51;100.00;69251.94;4985662;28;20039;-72
2021/08/07 09:38:22;;;;;;;3.42;1.60;;;;;;;-144.51;100.00;69251.94;4984902;28;20042;-72
2021/08/07 09:41:54;;;;;;;2.45;1.80;;;;;;;-144.51;100.00;69251.94;4990680;28;20497;-71
2021/08/07 09:44:42;;;;;;;7.70;2.15;;;;;;;-144.51;100.00;69251.94;4959266;28;20043;-72
2021/08/07 09:47:27;;;;;;;2.75;1.60;;;;;;;-144.51;100.00;69251.94;4977243;28;20043;-72
2021/08/07 09:50:23;;;;;;;6.47;1.85;;;;;;;-144.51;100.00;69251.94;4976587;28;20046;-72
2021/08/07 09:53:24;;;;;;;2.88;1.70;;;;;;;-144.51;100.00;69251.94;4966605;28;20030;-73
2021/08/07 09:56:10;;;;;;;1.92;1.40;;;;;;;-144.51;100.00;69251.94;4969452;28;20042;-73
2021/08/07 09:59:06;;;;;;;4.35;1.42;;;;;;;-144.51;100.00;69251.94;4984348;28;20428;-72
2021/08/07 10:01:53;;;;;;;4.63;2.08;;;;;;;-144.51;100.00;69251.94;4972553;28;20058;-72
2021/08/07 10:04:39;;;;;;;3.50;1.35;;;;;;;-144.51;100.00;69251.94;4957749;28;20047;-72
2021/08/07 10:07:27;;;;;;;4.97;1.65;;;;;;;-144.51;100.00;69251.94;4974954;28;20051;-72
2021/08/07 10:10:22;;;;;;;5.32;1.52;;;;;;;-144.51;100.00;69251.94;4972678;28;20042;-71
2021/08/07 10:13:21;;;;;;;2.85;1.40;;;;;;;-144.51;100.00;69251.94;4963905;28;20050;-71
2021/08/07 10:16:15;;;;;;;2.95;1.73;;;;;;;-144.51;100.00;69251.94;4963248;28;20050;-71
2021/08/07 10:19:02;;;;;;;5.78;1.80;;;;;;;-144.51;100.00;69251.94;4976086;28;20062;-72
2021/08/07 10:21:49;;;;;;;4.43;1.77;;;;;;;-144.51;100.00;69251.94;4959903;28;20039;-72
2021/08/07 10:24:39;;;;;;;3.03;1.20;;;;;;;-144.51;100.00;69251.94;4964357;28;20046;-72
2021/08/07 10:27:27;;;;;;;4.13;1.98;;;;;;;-144.51;100.00;69251.94;4962554;28;20039;-72
2021/08/07 10:30:15;;;;;;;4.93;1.10;;;;;;;-144.51;100.00;69251.94;4961113;28;20043;-71
2021/08/07 10:33:06;;;;;;;4.95;1.40;;;;;;;-144.51;100.00;69251.94;4959482;28;20054;-71
2021/08/07 10:35:53;;;;;;;2.97;1.50;;;;;;;-144.51;100.00;69251.94;4975573;28;20039;-72
2021/08/07 10:38:38;;;;;;;2.05;1.50;;;;;;;-144.51;100.00;69251.94;4959954;28;20042;-72
2021/08/07 10:41:30;;;;;;;2.92;1.40;;;;;;;-144.51;100.00;69251.94;4964681;28;20039;-71
2021/08/07 10:44:16;;;;;;;6.43;1.58;;;;;;;-144.51;100.00;69251.94;4984388;28;20042;-72
2021/08/07 10:47:02;;;;;;;2.42;1.60;;;;;;;-144.51;100.00;69251.94;4981326;28;20042;-72
2021/08/07 10:49:47;;;;;;;5.85;1.88;;;;;;;-144.51;100.00;69251.94;4970267;28;20046;-71
2021/08/07 10:52:36;;;;;;;3.25;1.73;;;;;;;-144.51;100.00;69251.94;4964812;28;20046;-71
2021/08/07 10:55:45;;;;;;;3.13;1.20;;;;;;;-144.51;100.00;69251.94;4984583;28;20038;-73
2021/08/07 10:58:37;;;;;;;6.32;2.05;;;;;;;-144.51;100.00;69251.94;4979450;28;20046;-74
2021/08/07 11:01:25;;;;;;;8.82;1.80;;;;;;;-144.51;100.00;69251.94;4980981;28;20039;-74
2021/08/07 11:04:19;;;;;;;5.05;1.88;;;;;;;-144.51;100.00;69251.94;4981874;28;20043;-74
2021/08/07 11:07:08;;;;;;;4.95;1.70;;;;;;;-144.51;100.00;69251.94;4980411;28;20038;-74
2021/08/07 11:10:30;;;;;;;4.63;1.92;;;;;;;-144.51;100.00;69251.94;4977783;28;20050;-74
2021/08/07 11:13:26;;;;;;;5.47;1.55;;;;;;;-144.51;100.00;69251.94;4990949;28;20496;-73
2021/08/07 11:16:19;;;;;;;4.55;1.50;;;;;;;-144.51;100.00;69251.94;4986813;28;20455;-73
2021/08/07 11:19:42;;;;;;;4.40;1.67;;;;;;;-144.51;100.00;69251.94;4980576;28;20416;-74
2021/08/07 11:22:36;;;;;;;5.47;2.05;;;;;;;-144.51;100.00;69251.94;4973657;28;20054;-74
2021/08/07 11:25:22;;;;;;;5.28;1.92;;;;;;;-144.51;100.00;69251.94;4974859;28;20047;-74
2021/08/07 11:28:07;;;;;;;8.57;1.52;;;;;;;-144.51;100.00;69251.94;4978604;28;20500;-75
2021/08/07 11:31:15;;;;;;;8.27;1.50;;;;;;;-144.51;100.00;69251.94;4977601;28;20034;-75
2021/08/07 11:34:19;;;;;;;3.88;1.60;;;;;;;-144.51;100.00;69251.94;4979468;28;20042;-74
2021/08/07 11:37:15;;;;;;;6.25;1.23;;;;;;;-144.51;100.00;69251.94;4978294;28;20646;-76
2021/08/07 11:40:05;;;;;;;7.25;2.03;;;;;;;-144.51;100.00;69251.94;4960700;28;20450;-75
2021/08/07 11:42:50;;;;;;;9.43;1.80;;;;;;;-144.51;100.00;69251.94;4963504;28;20050;-73
2021/08/07 11:45:35;;;;;;;4.65;1.80;;;;;;;-144.51;100.00;69251.94;4984278;28;20043;-73
2021/08/07 11:48:29;;;;;;;3.63;1.60;;;;;;;-144.51;100.00;69251.94;4974849;28;20043;-73
2021/08/07 11:51:15;;;;;;;4.63;1.77;;;;;;;-144.51;100.00;69251.94;4975965;28;20038;-73
2021/08/07 11:54:00;;;;;;;5.07;1.67;;;;;;;-144.51;100.00;69251.94;4978873;28;20038;-73
2021/08/07 11:56:47;;;;;;;6.57;1.98;;;;;;;-144.51;100.00;69251.94;4974630;28;20420;-73
2021/08/07 11:59:32;;;;;;;5.68;1.60;;;;;;;-144.51;100.00;69251.94;4973165;28;20412;-73
2021/08/07 12:02:17;;;;;;;2.72;1.67;;;;;;;-144.51;100.00;69251.94;4974514;28;20047;-73
2021/08/07 12:05:08;;;;;;;2.00;1.50;;;;;;;-144.51;100.00;69251.94;4974114;28;20042;-73
2021/08/07 12:08:08;;;;;;;6.20;1.60;;;;;;;-144.51;100.00;69251.94;4978225;28;20055;-71
2021/08/07 12:11:00;;;;;;;4.32;2.00;;;;;;;-144.51;100.00;69251.94;4972525;28;20043;-71
2021/08/07 12:13:57;;;;;;;8.07;1.70;;;;;;;-144.51;100.00;69251.94;4973378;28;20489;-71
2021/08/07 12:16:42;;;;;;;6.95;1.98;;;;;;;-144.51;100.00;69251.94;4976841;28;20038;-71
2021/08/07 12:19:27;;;;;;;5.75;1.95;;;;;;;-144.51;100.00;69251.94;4975273;28;20050;-71
2021/08/07 12:22:12;;;;;;;8.38;2.35;;;;;;;-144.51;100.00;69251.94;4986338;28;20500;-71
2021/08/07 12:25:02;;;;;;;3.92;1.70;;;;;;;-144.51;100.00;69251.94;4984751;28;20042;-69
2021/08/07 12:28:19;;;;;;;3.33;1.73;;;;;;;-144.51;100.00;69251.94;4987834;28;20520;-69
2021/08/07 12:31:05;;;;;;;2.08;1.42;;;;;;;-144.51;100.00;69251.94;4971483;28;20043;-69
2021/08/07 12:33:50;;;;;;;7.95;1.90;;;;;;;-144.51;100.00;69251.94;4980910;28;20042;-69
2021/08/07 12:36:35;;;;;;;4.35;1.70;;;;;;;-144.51;100.00;69251.94;4981105;28;20035;-70
2021/08/07 12:39:20;;;;;;;6.50;1.85;;;;;;;-144.51;100.00;69251.94;4983915;28;20035;-70
2021/08/07 12:42:07;;;;;;;3.63;1.98;;;;;;;-144.51;100.00;69251.94;4988425;28;20043;-70
2021/08/07 12:45:06;;;;;;;4.40;1.83;;;;;;;-144.51;100.00;69251.94;4976529;28;20046;-70